Aviation Digital Data Service (ADDS)

Output produced by METARs form (2310 UTC 23 May 2022)
found at http://www.aviationweather.gov/metar/data/
 
LWOH 231900Z 09003KT 9999 FEW043TCU 20/14 Q1013
TAF LWOH 232030Z 2321/2421 VRB02KT 9999 FEW040
       
LWSK 232300Z 04004KT CAVOK 17/15 Q1011 NOSIG
TAF LWSK 232030Z 2321/2421 VRB02KT 9999 FEW100 
     PROB40 
     TEMPO 2415/2420 VRB20KT TSRA SCT033CB BKN050